Time;durP1;ratioP1;P1;durP2;ratioP2;P2;SDS_P1;SDS_P2;PMS_P1;PMS_P2;Temp;Humidity;BMP_temperature;BMP_pressure;BME280_temperature;BME280_humidity;BME280_pressure;Samples;Min_cycle;Max_cycle;Signal;HPM_P1;HPM_P2
2023/05/23 00:00:04;;;;;;;34.67;24.67;;;;;;;13.57;100.00;101735.50;5314827;27;20022;-66
2023/05/23 00:02:36;;;;;;;35.45;25.23;;;;;;;13.59;100.00;101741.59;5312715;27;20031;-66
2023/05/23 00:05:08;;;;;;;33.65;25.38;;;;;;;13.58;100.00;101743.44;5317587;28;20028;-67
2023/05/23 00:07:39;;;;;;;33.58;24.42;;;;;;;13.61;100.00;101736.97;5291929;28;20055;-66
2023/05/23 00:10:12;;;;;;;37.47;25.90;;;;;;;13.60;100.00;101736.13;5292875;28;20509;-66
2023/05/23 00:12:46;;;;;;;33.25;24.10;;;;;;;13.62;100.00;101741.38;5287699;28;20023;-66
2023/05/23 00:15:18;;;;;;;;;;;;;;;13.70;100.00;101744.34;5286405;28;20031;-66
2023/05/23 00:17:50;;;;;;;33.72;23.33;;;;;;;13.62;100.00;101741.38;5298884;28;19916;-66
2023/05/23 00:20:21;;;;;;;31.10;22.88;;;;;;;13.61;100.00;101743.19;5281402;28;20028;-66
2023/05/23 00:22:53;;;;;;;30.67;23.08;;;;;;;13.61;100.00;101739.66;5295871;28;20107;-66
2023/05/23 00:25:25;;;;;;;29.85;22.50;;;;;;;13.62;100.00;101746.75;5284983;28;20029;-66
2023/05/23 00:27:56;;;;;;;31.25;21.33;;;;;;;13.61;100.00;101745.03;5287102;28;20035;-66
2023/05/23 00:30:30;;;;;;;24.50;19.42;;;;;;;13.63;100.00;101751.13;5305844;28;20078;-66
2023/05/23 00:33:02;;;;;;;;;;;;;;;13.71;100.00;101754.97;5303306;28;20027;-66
2023/05/23 00:35:33;;;;;;;22.73;18.00;;;;;;;13.65;100.00;101754.53;5298652;28;19912;-66
2023/05/23 00:38:06;;;;;;;24.33;16.75;;;;;;;13.64;100.00;101755.53;5304651;28;20194;-66
2023/05/23 00:40:37;;;;;;;25.45;17.33;;;;;;;13.67;100.00;101755.28;5282171;28;20024;-66
2023/05/23 00:43:09;;;;;;;21.08;16.90;;;;;;;13.72;100.00;101748.59;5294761;28;20426;-66
2023/05/23 00:45:40;;;;;;;22.25;16.80;;;;;;;13.71;100.00;101757.63;5292964;28;20024;-66
2023/05/23 00:48:12;;;;;;;21.95;16.23;;;;;;;13.72;100.00;101750.44;5284390;28;20047;-66
2023/05/23 00:50:43;;;;;;;19.58;15.82;;;;;;;13.73;100.00;101754.84;5287726;28;20047;-66
2023/05/23 00:53:15;;;;;;;19.50;15.43;;;;;;;13.76;100.00;101756.44;5290265;28;20025;-66
2023/05/23 00:55:47;;;;;;;19.33;16.15;;;;;;;13.76;100.00;101762.66;5303391;28;20032;-66
2023/05/23 00:58:18;;;;;;;21.83;17.15;;;;;;;13.77;100.00;101761.69;5292252;28;20055;-66
2023/05/23 01:00:53;;;;;;;24.30;17.73;;;;;;;13.80;100.00;101768.63;5293340;28;20111;-66
2023/05/23 01:03:27;;;;;;;;;;;;;;;13.86;100.00;101757.44;5288282;28;20389;-66
2023/05/23 01:05:58;;;;;;;24.05;17.25;;;;;;;13.78;100.00;101766.06;5284078;28;20281;-66
2023/05/23 01:08:30;;;;;;;21.83;17.30;;;;;;;13.78;100.00;101768.75;5303719;28;20063;-66
2023/05/23 01:11:09;;;;;;;24.88;17.17;;;;;;;13.77;100.00;101767.06;5315823;28;20031;-66
2023/05/23 01:13:46;;;;;;;23.88;17.10;;;;;;;13.76;100.00;101764.47;5313581;28;20041;-66
2023/05/23 01:16:35;;;;;;;25.63;17.38;;;;;;;13.75;100.00;101765.44;5307642;28;20451;-66
2023/05/23 01:19:28;;;;;;;23.63;16.60;;;;;;;13.75;100.00;101770.78;5300546;28;20401;-66
2023/05/23 01:22:18;;;;;;;24.27;17.20;;;;;;;13.69;100.00;101772.13;5310922;28;20035;-68
2023/05/23 01:25:15;;;;;;;25.33;16.90;;;;;;;13.71;100.00;101770.16;5316047;27;20498;-66
2023/05/23 01:28:00;;;;;;;23.67;15.77;;;;;;;13.67;100.00;101774.94;5275540;28;20069;-67
2023/05/23 01:30:37;;;;;;;22.15;15.00;;;;;;;13.57;100.00;101778.41;5299134;28;20060;-67
2023/05/23 01:33:10;;;;;;;22.38;14.10;;;;;;;13.55;100.00;101775.81;5299607;28;20138;-66
2023/05/23 01:35:42;;;;;;;19.25;13.52;;;;;;;13.52;100.00;101776.94;5298644;28;20031;-66
2023/05/23 01:38:14;;;;;;;23.25;14.90;;;;;;;13.53;100.00;101786.66;5296138;28;20020;-66
2023/05/23 01:40:45;;;;;;;21.50;14.63;;;;;;;13.50;100.00;101781.53;5298277;28;20271;-66
2023/05/23 01:43:16;;;;;;;22.17;14.70;;;;;;;13.49;100.00;101789.69;5297158;28;20069;-66
2023/05/23 01:45:49;;;;;;;21.73;14.70;;;;;;;13.50;100.00;101792.28;5296500;28;20034;-66
2023/05/23 01:48:23;;;;;;;23.48;16.48;;;;;;;13.46;100.00;101785.44;5300421;28;20104;-66
2023/05/23 01:50:55;;;;;;;24.30;16.33;;;;;;;13.46;100.00;101790.78;5295796;28;20466;-66
2023/05/23 01:53:29;;;;;;;26.48;17.08;;;;;;;13.44;100.00;101797.22;5310232;28;20024;-66
2023/05/23 01:56:02;;;;;;;27.20;16.52;;;;;;;13.44;100.00;101790.03;5301593;28;20451;-66
2023/05/23 01:58:33;;;;;;;28.92;18.58;;;;;;;13.41;100.00;101790.25;5309494;28;20457;-66
2023/05/23 02:01:05;;;;;;;28.42;18.55;;;;;;;13.42;100.00;101796.47;5308132;28;20036;-66
2023/05/23 02:03:37;;;;;;;27.60;17.98;;;;;;;13.41;100.00;101790.25;5308625;27;20096;-66
2023/05/23 02:06:09;;;;;;;30.38;18.17;;;;;;;13.39;100.00;101794.88;5307368;28;20059;-66
2023/05/23 02:08:40;;;;;;;30.10;19.33;;;;;;;13.39;100.00;101802.06;5269512;28;20146;-67
2023/05/23 02:11:11;;;;;;;28.50;19.75;;;;;;;13.35;100.00;101804.13;5275770;28;20028;-67
2023/05/23 02:13:43;;;;;;;26.58;18.38;;;;;;;13.36;100.00;101804.97;5275942;28;20028;-66
2023/05/23 02:16:14;;;;;;;32.08;19.13;;;;;;;13.36;100.00;101804.97;5270737;28;20051;-66
2023/05/23 02:18:46;;;;;;;32.00;18.85;;;;;;;13.35;100.00;101804.13;5269203;28;20165;-66
2023/05/23 02:21:17;;;;;;;27.95;18.02;;;;;;;13.34;100.00;101807.75;5268640;28;20051;-66
2023/05/23 02:23:49;;;;;;;32.85;19.27;;;;;;;13.30;100.00;101808.94;5272548;28;20033;-66
2023/05/23 02:26:20;;;;;;;32.30;18.25;;;;;;;13.29;100.00;101816.13;5266361;28;20400;-66
2023/05/23 02:28:52;;;;;;;33.65;19.30;;;;;;;13.30;100.00;101827.72;5259044;28;20021;-67
2023/05/23 02:31:23;;;;;;;30.13;18.85;;;;;;;13.29;100.00;101826.84;5265070;28;20113;-66
2023/05/23 02:33:55;;;;;;;29.33;18.15;;;;;;;13.30;100.00;101825.03;5258961;28;20067;-67
2023/05/23 02:36:26;;;;;;;29.05;17.85;;;;;;;13.28;100.00;101822.41;5278371;28;20031;-66
2023/05/23 02:38:57;;;;;;;25.10;17.05;;;;;;;13.29;100.00;101812.59;5269712;28;20039;-66
2023/05/23 02:41:29;;;;;;;26.38;16.40;;;;;;;13.28;100.00;101818.91;5276911;28;20035;-66
2023/05/23 02:44:00;;;;;;;25.35;16.00;;;;;;;13.30;100.00;101823.19;5264961;28;20032;-67
2023/05/23 02:46:31;;;;;;;24.70;16.48;;;;;;;13.30;100.00;101817.00;5268507;28;20086;-67
2023/05/23 02:49:03;;;;;;;27.33;16.45;;;;;;;13.30;100.00;101820.53;5265576;28;20512;-67
2023/05/23 02:51:35;;;;;;;24.45;14.68;;;;;;;13.29;100.00;101821.47;5267154;28;20446;-66
2023/05/23 02:54:06;;;;;;;22.48;14.70;;;;;;;13.28;100.00;101824.25;5265061;28;20029;-66
2023/05/23 02:56:37;;;;;;;23.90;13.30;;;;;;;13.28;100.00;101816.22;5262159;28;21857;-67
2023/05/23 02:59:11;;;;;;;16.75;11.68;;;;;;;13.27;100.00;101817.16;5266333;28;20040;-66
2023/05/23 03:01:42;;;;;;;21.90;12.63;;;;;;;13.26;100.00;101821.69;5267985;28;20210;-66
2023/05/23 03:04:13;;;;;;;21.63;11.10;;;;;;;13.26;100.00;101818.16;5271163;28;20483;-66
2023/05/23 03:06:46;;;;;;;16.00;10.27;;;;;;;13.28;100.00;101818.91;5261501;28;20049;-67
2023/05/23 03:09:17;;;;;;;15.63;10.18;;;;;;;13.29;100.00;101820.63;5257378;28;20187;-67
2023/05/23 03:11:50;;;;;;;16.20;9.98;;;;;;;13.29;100.00;101816.13;5254335;28;20081;-67
2023/05/23 03:14:21;;;;;;;15.05;9.30;;;;;;;13.29;100.00;101817.94;5256421;28;20035;-66
2023/05/23 03:16:52;;;;;;;10.13;8.05;;;;;;;13.30;100.00;101819.66;5264508;28;20386;-66
2023/05/23 03:19:24;;;;;;;11.82;8.07;;;;;;;13.29;100.00;101825.97;5259385;28;20017;-66
2023/05/23 03:21:55;;;;;;;11.30;7.20;;;;;;;13.27;100.00;101823.41;5257200;28;20460;-67
2023/05/23 03:24:26;;;;;;;11.30;8.07;;;;;;;13.27;100.00;101819.84;5258130;28;20116;-66
2023/05/23 03:26:58;;;;;;;11.77;7.47;;;;;;;13.26;100.00;101820.84;5265856;28;20033;-66
2023/05/23 03:29:29;;;;;;;10.32;7.45;;;;;;;13.25;100.00;101819.09;5266212;28;20033;-67
2023/05/23 03:32:00;;;;;;;10.45;7.35;;;;;;;13.33;100.00;101832.88;5262594;28;20044;-66
2023/05/23 03:34:33;;;;;;;11.02;7.82;;;;;;;13.29;100.00;101826.84;5272164;28;20463;-66
2023/05/23 03:37:04;;;;;;;9.68;7.03;;;;;;;13.30;100.00;101833.06;5262618;28;20115;-67
2023/05/23 03:39:35;;;;;;;10.80;7.35;;;;;;;13.33;100.00;101830.19;5266299;28;20039;-66
2023/05/23 03:42:07;;;;;;;11.63;7.30;;;;;;;13.33;100.00;101830.19;5265062;28;20037;-67
2023/05/23 03:44:38;;;;;;;11.73;7.30;;;;;;;13.31;100.00;101824.94;5260552;28;20118;-66
2023/05/23 03:47:10;;;;;;;10.77;7.75;;;;;;;13.33;100.00;101830.19;5258765;28;20029;-66
2023/05/23 03:49:41;;;;;;;10.32;7.55;;;;;;;13.37;100.00;101834.34;5257655;28;20028;-66
2023/05/23 03:52:12;;;;;;;11.75;7.80;;;;;;;13.38;100.00;101841.41;5253111;28;20521;-66
2023/05/23 03:54:44;;;;;;;13.20;8.50;;;;;;;13.37;100.00;101839.72;5257563;28;20471;-66
2023/05/23 03:57:15;;;;;;;13.77;8.55;;;;;;;13.38;100.00;101844.09;5256730;28;20034;-66
2023/05/23 03:59:47;;;;;;;13.85;8.75;;;;;;;13.36;100.00;101837.13;5255941;28;20009;-66
2023/05/23 04:02:18;;;;;;;13.55;8.57;;;;;;;13.37;100.00;101841.53;5259886;28;20933;-66
2023/05/23 04:04:50;;;;;;;15.88;9.32;;;;;;;13.37;100.00;101836.19;5256759;28;20375;-66
2023/05/23 04:07:22;;;;;;;15.02;9.25;;;;;;;13.39;100.00;101842.28;5256005;28;20708;-66
2023/05/23 04:09:53;;;;;;;15.75;8.55;;;;;;;13.38;100.00;101851.28;5257259;28;20025;-66
2023/05/23 04:12:25;;;;;;;16.23;8.75;;;;;;;13.37;100.00;101845.06;5257364;28;20139;-66
2023/05/23 04:14:57;;;;;;;12.18;7.78;;;;;;;13.39;100.00;101853.84;5258415;28;20303;-66
2023/05/23 04:17:30;;;;;;;14.07;8.13;;;;;;;13.40;100.00;101850.19;5253544;28;20025;-66
2023/05/23 04:20:01;;;;;;;13.27;8.15;;;;;;;13.40;100.00;101855.56;5254162;28;20421;-66
2023/05/23 04:22:32;;;;;;;16.83;8.70;;;;;;;13.40;100.00;101854.72;5254622;28;20158;-66
2023/05/23 04:25:05;;;;;;;14.48;8.38;;;;;;;13.41;100.00;101857.28;5263221;28;21768;-66
2023/05/23 04:27:38;;;;;;;15.50;8.80;;;;;;;13.43;100.00;101862.53;5257981;28;20744;-66
2023/05/23 04:30:10;;;;;;;17.05;9.27;;;;;;;13.43;100.00;101868.75;5258309;28;20117;-66
2023/05/23 04:32:42;;;;;;;15.57;9.38;;;;;;;13.42;100.00;101858.13;5255446;28;20679;-66
2023/05/23 04:35:13;;;;;;;19.27;10.40;;;;;;;13.40;100.00;101866.28;5259547;28;20029;-66
2023/05/23 04:37:45;;;;;;;22.77;10.27;;;;;;;13.39;100.00;101867.25;5257380;28;20445;-66
2023/05/23 04:40:17;;;;;;;16.60;10.68;;;;;;;13.39;100.00;101863.72;5255920;28;20391;-66
2023/05/23 04:42:50;;;;;;;18.92;11.25;;;;;;;13.37;100.00;101868.34;5255721;28;20021;-66
2023/05/23 04:45:22;;;;;;;19.52;10.40;;;;;;;13.40;100.00;101868.97;5257486;28;20512;-66
2023/05/23 04:47:56;;;;;;;23.27;11.27;;;;;;;13.40;100.00;101873.47;5258227;28;20078;-66
2023/05/23 04:50:30;;;;;;;;;;;;;;;13.49;100.00;101880.84;5263507;28;20442;-66
2023/05/23 04:53:01;;;;;;;21.42;10.30;;;;;;;13.40;100.00;101876.16;5260754;28;20632;-66
2023/05/23 04:55:33;;;;;;;20.58;11.00;;;;;;;13.37;100.00;101882.59;5263062;28;20063;-66
2023/05/23 04:58:04;;;;;;;21.85;11.73;;;;;;;13.34;100.00;101882.81;5256199;28;20064;-67
2023/05/23 05:00:36;;;;;;;25.75;13.10;;;;;;;13.34;100.00;101889.03;5254252;28;20263;-66
2023/05/23 05:03:08;;;;;;;27.85;12.93;;;;;;;13.30;100.00;101882.16;5257860;28;20414;-66
2023/05/23 05:05:39;;;;;;;24.15;12.02;;;;;;;13.28;100.00;101896.63;5264283;28;20390;-66
2023/05/23 05:08:13;;;;;;;27.23;13.68;;;;;;;13.24;100.00;101895.97;5303117;28;20402;-66
2023/05/23 05:10:44;;;;;;;25.65;12.93;;;;;;;13.22;100.00;101899.75;5320541;28;20052;-66
2023/05/23 05:13:16;;;;;;;26.60;12.25;;;;;;;13.25;100.00;101895.03;5307146;28;20031;-66
2023/05/23 05:15:47;;;;;;;27.00;12.57;;;;;;;13.24;100.00;101904.03;5301132;28;20078;-66
2023/05/23 05:18:18;;;;;;;28.08;12.02;;;;;;;13.25;100.00;101912.91;5310621;28;20409;-65
2023/05/23 05:20:50;;;;;;;21.67;12.43;;;;;;;13.21;100.00;101917.66;5308731;28;20023;-65
2023/05/23 05:23:25;;;;;;;23.98;11.93;;;;;;;13.19;100.00;101921.38;5314514;28;20523;-66
2023/05/23 05:25:56;;;;;;;31.10;13.63;;;;;;;13.13;100.00;101910.16;5309236;28;21519;-66
2023/05/23 05:28:27;;;;;;;27.73;13.27;;;;;;;13.11;100.00;101917.41;5305163;28;20027;-65
2023/05/23 05:31:03;;;;;;;30.08;13.10;;;;;;;13.04;100.00;101918.84;5310610;28;20024;-65
2023/05/23 05:33:35;;;;;;;31.15;12.82;;;;;;;13.04;100.00;101924.19;5320092;27;20382;-67
2023/05/23 05:36:06;;;;;;;30.25;11.60;;;;;;;12.99;100.00;101931.69;5291960;27;20039;-66
2023/05/23 05:38:38;;;;;;;31.42;12.45;;;;;;;12.97;100.00;101928.25;5317506;27;20035;-65
2023/05/23 05:41:09;;;;;;;27.90;12.43;;;;;;;12.97;100.00;101924.72;5310150;27;20553;-65
2023/05/23 05:43:40;;;;;;;29.70;11.70;;;;;;;12.96;100.00;101929.19;5309727;27;20518;-65
2023/05/23 05:46:12;;;;;;;24.35;11.32;;;;;;;12.95;100.00;101931.03;5313382;28;20034;-65
2023/05/23 05:48:43;;;;;;;26.25;11.35;;;;;;;12.94;100.00;101940.03;5308682;27;20489;-66
2023/05/23 05:51:15;;;;;;;26.63;11.65;;;;;;;12.96;100.00;101945.28;5308907;27;20049;-65
2023/05/23 05:53:48;;;;;;;22.52;11.00;;;;;;;12.97;100.00;101932.75;5313832;28;20160;-66
2023/05/23 05:56:21;;;;;;;26.20;10.90;;;;;;;12.95;100.00;101952.47;5303657;27;20023;-66
2023/05/23 05:58:52;;;;;;;24.42;10.60;;;;;;;12.96;100.00;101956.00;5317739;27;20035;-66
2023/05/23 06:01:24;;;;;;;25.55;10.15;;;;;;;12.92;100.00;101946.44;5316634;27;20019;-66
2023/05/23 06:03:55;;;;;;;25.45;10.02;;;;;;;12.90;100.00;101953.75;5318711;27;20016;-66
2023/05/23 06:06:26;;;;;;;24.45;10.32;;;;;;;12.89;100.00;101952.88;5318537;27;20117;-66
2023/05/23 06:08:58;;;;;;;20.13;9.45;;;;;;;12.85;100.00;101958.56;5293757;27;20028;-66
2023/05/23 06:11:30;;;;;;;20.02;9.35;;;;;;;12.79;100.00;101964.31;5312930;27;20081;-66
2023/05/23 06:14:01;;;;;;;21.05;8.88;;;;;;;12.79;100.00;101958.97;5316637;27;20027;-65
2023/05/23 06:16:33;;;;;;;21.13;8.88;;;;;;;12.81;100.00;101970.44;5316005;28;20031;-66
2023/05/23 06:19:04;;;;;;;14.98;6.97;;;;;;;12.77;100.00;101975.16;5314124;27;20418;-65
2023/05/23 06:21:35;;;;;;;17.23;7.85;;;;;;;12.75;100.00;101975.25;5315174;28;20023;-66
2023/05/23 06:24:07;;;;;;;15.90;7.50;;;;;;;12.78;100.00;101981.38;5316618;27;20035;-66
2023/05/23 06:26:38;;;;;;;16.50;7.13;;;;;;;12.70;100.00;101979.22;5317330;28;20031;-66
2023/05/23 06:29:09;;;;;;;12.50;6.10;;;;;;;12.72;100.00;101983.50;5313628;27;20042;-65
2023/05/23 06:31:41;;;;;;;16.23;7.00;;;;;;;12.70;100.00;101985.41;5318397;28;20027;-65
2023/05/23 06:34:12;;;;;;;13.20;6.60;;;;;;;12.70;100.00;101979.22;5314579;27;20027;-65
2023/05/23 06:36:45;;;;;;;12.48;5.97;;;;;;;12.69;100.00;101982.84;5315681;28;20405;-65
2023/05/23 06:39:17;;;;;;;14.88;6.82;;;;;;;12.63;100.00;101978.75;5313339;28;20038;-66
2023/05/23 06:41:48;;;;;;;15.30;6.00;;;;;;;12.66;100.00;101983.91;5318025;28;20019;-66
2023/05/23 06:44:19;;;;;;;14.00;5.78;;;;;;;12.61;100.00;101985.19;5315791;27;20035;-66
2023/05/23 06:46:56;;;;;;;12.88;6.13;;;;;;;12.59;100.00;101998.66;5315195;27;20459;-66
2023/05/23 06:49:27;;;;;;;14.73;6.70;;;;;;;12.59;100.00;101998.66;5318631;27;20032;-66
2023/05/23 06:51:59;;;;;;;12.20;5.55;;;;;;;12.52;100.00;102008.06;5312606;28;20035;-65
2023/05/23 06:54:30;;;;;;;15.23;6.45;;;;;;;12.48;100.00;102009.22;5314654;27;20446;-67
2023/05/23 06:57:01;;;;;;;14.95;6.63;;;;;;;12.42;100.00;102009.63;5305801;27;20554;-66
2023/05/23 06:59:33;;;;;;;14.98;6.22;;;;;;;12.38;100.00;102010.78;5320943;27;20026;-65
2023/05/23 07:02:04;;;;;;;14.20;6.00;;;;;;;12.36;100.00;102027.78;5312408;27;20028;-66
2023/05/23 07:04:36;;;;;;;11.35;5.53;;;;;;;12.32;100.00;102026.28;5313918;27;20524;-65
2023/05/23 07:07:07;;;;;;;14.13;6.78;;;;;;;12.33;100.00;102024.47;5320449;27;20055;-66
2023/05/23 07:09:38;;;;;;;11.10;5.97;;;;;;;12.31;100.00;102032.63;5310480;28;20028;-66
2023/05/23 07:12:10;;;;;;;12.73;5.80;;;;;;;12.36;100.00;102030.47;5315484;27;20072;-66
2023/05/23 07:14:41;;;;;;;11.18;5.35;;;;;;;12.40;100.00;102031.13;5317465;27;20048;-66
2023/05/23 07:17:12;;;;;;;15.00;6.00;;;;;;;12.42;100.00;102034.56;5308406;27;20032;-66
2023/05/23 07:19:44;;;;;;;18.27;6.10;;;;;;;12.47;100.00;102031.63;5310738;27;20036;-66
2023/05/23 07:22:16;;;;;;;12.43;5.38;;;;;;;12.53;100.00;102031.19;5308544;27;20038;-65
2023/05/23 07:24:47;;;;;;;13.32;5.47;;;;;;;12.64;100.00;102035.84;5323325;27;20024;-65
2023/05/23 07:27:18;;;;;;;11.25;5.00;;;;;;;12.68;100.00;102030.19;5308787;27;20123;-66
2023/05/23 07:29:50;;;;;;;10.75;4.95;;;;;;;12.76;100.00;102032.34;5309986;27;20062;-66
2023/05/23 07:32:21;;;;;;;13.68;5.20;;;;;;;12.86;100.00;102037.94;5310000;28;20035;-66
2023/05/23 07:34:53;;;;;;;11.80;5.10;;;;;;;12.87;100.00;102035.19;5307475;27;20111;-66
2023/05/23 07:37:26;;;;;;;13.18;5.32;;;;;;;12.93;100.00;102034.75;5317554;27;20487;-65
2023/05/23 07:39:57;;;;;;;12.70;4.97;;;;;;;13.03;100.00;102035.00;5319821;27;20019;-66
2023/05/23 07:42:29;;;;;;;11.00;4.75;;;;;;;13.06;100.00;102029.44;5316564;27;20038;-65
2023/05/23 07:45:00;;;;;;;14.70;5.72;;;;;;;13.17;100.00;102035.88;5322138;27;20028;-66
2023/05/23 07:47:31;;;;;;;15.25;6.20;;;;;;;13.26;100.00;102037.94;5306482;28;20044;-65
2023/05/23 07:50:04;;;;;;;11.48;5.22;;;;;;;13.33;100.00;102041.94;5315717;28;20068;-65
2023/05/23 07:52:35;;;;;;;18.27;6.10;;;;;;;13.39;100.00;102030.78;5313634;27;20027;-65
2023/05/23 07:55:07;;;;;;;11.38;5.00;;;;;;;13.40;100.00;102037.00;5317708;27;20024;-66
2023/05/23 07:57:38;;;;;;;11.82;5.70;;;;;;;13.51;100.00;102050.53;5309539;27;20077;-65
2023/05/23 08:00:11;;;;;;;15.60;6.03;;;;;;;13.47;100.00;102054.38;5318574;27;20469;-66
2023/05/23 08:02:42;;;;;;;16.90;6.18;;;;;;;13.41;100.00;102047.63;5312726;28;20461;-65
2023/05/23 08:05:13;;;;;;;13.55;6.30;;;;;;;13.34;100.00;102054.38;5316377;27;20059;-66
2023/05/23 08:07:45;;;;;;;20.08;6.10;;;;;;;13.35;100.00;102053.41;5307360;27;20530;-65
2023/05/23 08:10:16;;;;;;;12.35;5.00;;;;;;;13.41;100.00;102066.38;5307294;27;20107;-66
2023/05/23 08:12:48;;;;;;;14.30;5.38;;;;;;;13.41;100.00;102068.22;5305535;28;20115;-66
2023/05/23 08:15:20;;;;;;;14.70;5.60;;;;;;;13.42;100.00;102065.41;5315676;27;20027;-66
2023/05/23 08:17:55;;;;;;;14.32;5.85;;;;;;;13.49;100.00;102068.53;5304331;28;20027;-65
2023/05/23 08:20:30;;;;;;;12.15;5.38;;;;;;;13.68;100.00;102068.13;5310947;27;20424;-66
2023/05/23 08:23:02;;;;;;;15.15;5.80;;;;;;;13.78;100.00;102057.59;5318618;27;20050;-65
2023/05/23 08:25:33;;;;;;;12.30;5.82;;;;;;;13.83;100.00;102053.63;5308673;27;20020;-66
2023/05/23 08:28:05;;;;;;;15.75;6.07;;;;;;;13.86;100.00;102058.75;5316333;27;20120;-65
2023/05/23 08:30:36;;;;;;;10.70;5.50;;;;;;;13.77;100.00;102082.69;5313149;27;20024;-65
2023/05/23 08:33:07;;;;;;;13.45;6.03;;;;;;;13.66;100.00;102060.16;5306375;27;20465;-65
2023/05/23 08:35:40;;;;;;;11.05;4.90;;;;;;;13.61;100.00;102074.88;5323342;27;20035;-66
2023/05/23 08:38:11;;;;;;;11.25;5.22;;;;;;;13.67;100.00;102075.31;5302416;28;20229;-65
2023/05/23 08:40:51;;;;;;;10.68;5.38;;;;;;;13.69;100.00;102069.81;5304987;28;20496;-66
2023/05/23 08:43:22;;;;;;;11.52;4.97;;;;;;;13.69;100.00;102067.13;5311720;28;20082;-66
2023/05/23 08:45:54;;;;;;;13.38;4.60;;;;;;;13.72;100.00;102067.78;5324225;27;20492;-66
2023/05/23 08:48:25;;;;;;;14.68;4.53;;;;;;;13.73;100.00;102068.66;5311224;27;20028;-66
2023/05/23 08:50:57;;;;;;;11.25;4.63;;;;;;;13.84;100.00;102071.41;5311789;28;20077;-66
2023/05/23 08:53:30;;;;;;;12.23;4.72;;;;;;;13.89;100.00;102082.69;5287857;28;20024;-66
2023/05/23 08:56:02;;;;;;;13.02;4.07;;;;;;;13.90;100.00;102072.81;5306737;28;20482;-66
2023/05/23 08:58:34;;;;;;;9.13;4.20;;;;;;;13.93;100.00;102086.88;5311064;28;20023;-66
2023/05/23 09:01:07;;;;;;;8.50;3.90;;;;;;;14.03;100.00;102091.59;5310227;28;20481;-66
2023/05/23 09:03:41;;;;;;;14.32;5.13;;;;;;;13.99;100.00;102080.22;5326947;28;20115;-66
2023/05/23 09:06:12;;;;;;;10.38;4.32;;;;;;;14.02;100.00;102085.38;5319082;28;20104;-66
2023/05/23 09:08:45;;;;;;;10.90;4.63;;;;;;;14.16;100.00;102089.75;5320024;27;20023;-66
2023/05/23 09:11:16;;;;;;;10.35;4.20;;;;;;;14.23;100.00;102087.47;5305500;27;20065;-66
2023/05/23 09:13:48;;;;;;;9.50;4.28;;;;;;;14.25;100.00;102099.81;5319301;28;20525;-66
2023/05/23 09:16:20;;;;;;;8.18;4.28;;;;;;;14.31;100.00;102099.38;5300976;28;20389;-66
2023/05/23 09:18:51;;;;;;;9.93;4.32;;;;;;;14.22;100.00;102096.50;5314962;27;20035;-66
2023/05/23 09:21:24;;;;;;;12.02;4.75;;;;;;;14.18;100.00;102093.16;5321483;27;20390;-65
2023/05/23 09:23:56;;;;;;;9.73;3.28;;;;;;;14.16;100.00;102096.94;5320274;27;20024;-66
2023/05/23 09:26:27;;;;;;;9.68;3.30;;;;;;;14.07;100.00;102098.44;5325533;27;20043;-66
2023/05/23 09:28:59;;;;;;;11.05;3.65;;;;;;;14.09;100.00;102097.41;5315524;27;20040;-66
2023/05/23 09:31:31;;;;;;;18.15;3.75;;;;;;;14.25;100.00;102102.50;5314119;28;20394;-66
2023/05/23 09:34:02;;;;;;;10.18;3.15;;;;;;;14.35;100.00;102101.84;5312611;27;20107;-66
2023/05/23 09:36:35;;;;;;;13.10;3.05;;;;;;;14.40;100.00;102103.22;5318835;27;20376;-66
2023/05/23 09:39:06;;;;;;;10.38;3.10;;;;;;;14.46;100.00;102107.31;5319645;27;20044;-66
2023/05/23 09:41:38;;;;;;;13.23;3.22;;;;;;;14.50;100.00;102101.59;5313176;28;20085;-66
2023/05/23 09:44:10;;;;;;;9.55;2.58;;;;;;;14.45;100.00;102100.19;5319311;27;20023;-66
2023/05/23 09:46:41;;;;;;;12.70;3.03;;;;;;;14.45;100.00;102110.94;5313856;27;20057;-66
2023/05/23 09:49:21;;;;;;;11.20;3.25;;;;;;;14.45;100.00;102116.31;5302453;27;20114;-66
2023/05/23 09:52:00;;;;;;;10.88;2.63;;;;;;;14.56;100.00;102097.59;5323847;27;20039;-66
2023/05/23 09:54:31;;;;;;;12.55;3.28;;;;;;;14.67;100.00;102099.53;5317825;27;20024;-66
2023/05/23 09:57:08;;;;;;;8.43;2.78;;;;;;;14.79;100.00;102103.13;5316460;27;20591;-66
2023/05/23 09:59:41;;;;;;;10.82;2.97;;;;;;;14.72;100.00;102101.88;5324630;27;20451;-66
2023/05/23 10:02:15;;;;;;;12.32;2.85;;;;;;;14.80;100.00;102099.47;5323029;27;20108;-66
2023/05/23 10:04:49;;;;;;;11.70;3.00;;;;;;;14.84;100.00;102100.94;5315202;27;20434;-66
2023/05/23 10:07:23;;;;;;;9.75;2.42;;;;;;;15.04;100.00;102102.16;5284610;27;20051;-66
2023/05/23 10:10:01;;;;;;;;;;;;;;;15.12;100.00;102106.94;5280141;28;20131;-66
2023/05/23 10:12:54;;;;;;;10.48;2.97;;;;;;;15.12;100.00;102094.34;5274706;28;19916;-66
2023/05/23 10:15:33;;;;;;;12.85;2.90;;;;;;;15.13;100.00;102100.56;5265356;28;20567;-66
2023/05/23 10:18:41;;;;;;;12.75;3.10;;;;;;;15.31;100.00;102092.97;5268468;28;20032;-66
2023/05/23 10:21:18;;;;;;;12.65;3.00;;;;;;;15.51;100.00;102099.47;5249299;28;20430;-66
2023/05/23 10:23:49;;;;;;;14.38;3.38;;;;;;;15.56;100.00;102108.06;5274936;28;20032;-66
2023/05/23 10:26:21;;;;;;;12.25;3.65;;;;;;;15.67;100.00;102110.78;5265697;28;20025;-66
2023/05/23 10:28:54;;;;;;;10.57;3.05;;;;;;;15.63;100.00;102107.47;5279219;28;20040;-66
2023/05/23 10:31:28;;;;;;;12.48;2.65;;;;;;;15.66;100.00;102109.91;5259515;28;20108;-66
2023/05/23 10:34:13;;;;;;;10.68;2.85;;;;;;;15.75;100.00;102105.69;5263853;28;20021;-66
2023/05/23 10:37:31;;;;;;;13.05;2.95;;;;;;;15.83;100.00;102113.16;5259459;28;20410;-66
2023/05/23 10:40:30;;;;;;;10.35;3.05;;;;;;;15.80;100.00;102111.56;5238954;28;20063;-66
2023/05/23 10:43:24;;;;;;;11.35;2.88;;;;;;;15.86;100.00;102097.63;5258118;28;20147;-66
2023/05/23 10:45:55;;;;;;;10.40;3.50;;;;;;;15.99;100.00;102102.00;5259669;28;20074;-66
2023/05/23 10:48:27;;;;;;;11.50;3.03;;;;;;;15.89;100.00;102093.81;5263692;28;20028;-66
2023/05/23 10:51:11;;;;;;;12.48;3.17;;;;;;;16.04;100.00;102103.38;5265930;28;20032;-66
2023/05/23 10:53:43;;;;;;;;;;;;;;;16.09;100.00;102084.16;5270163;28;20039;-66
2023/05/23 10:56:22;;;;;;;10.45;3.25;;;;;;;16.09;100.00;102105.72;5270802;28;19913;-67
2023/05/23 10:58:54;;;;;;;11.00;3.00;;;;;;;16.11;100.00;102095.66;5265970;28;20526;-66
2023/05/23 11:01:26;;;;;;;10.93;3.10;;;;;;;16.20;100.00;102097.63;5263149;28;21529;-66
2023/05/23 11:04:04;;;;;;;15.55;3.38;;;;;;;16.32;100.00;102103.84;5270511;28;20032;-66
2023/05/23 11:06:44;;;;;;;10.43;3.00;;;;;;;16.31;100.00;102101.28;5297929;28;20086;-66
2023/05/23 11:09:20;;;;;;;12.80;3.13;;;;;;;16.23;100.00;102108.13;5313099;28;20109;-66
2023/05/23 11:11:59;;;;;;;12.10;3.10;;;;;;;16.23;100.00;102105.44;5310878;27;20500;-66
2023/05/23 11:14:39;;;;;;;11.40;2.97;;;;;;;16.32;100.00;102106.56;5318939;27;20034;-66
2023/05/23 11:17:11;;;;;;;10.02;3.00;;;;;;;16.37;100.00;102090.84;5308038;27;20039;-66
2023/05/23 11:20:15;;;;;;;14.15;3.33;;;;;;;16.41;100.00;102110.31;5306791;28;20027;-66
2023/05/23 11:22:54;;;;;;;8.82;2.42;;;;;;;16.46;100.00;102095.50;5266681;27;20455;-66
2023/05/23 11:25:42;;;;;;;12.38;3.00;;;;;;;16.50;100.00;102093.41;5314332;28;20032;-66
2023/05/23 11:28:15;;;;;;;10.45;3.00;;;;;;;16.61;100.00;102089.84;5312475;28;20053;-66
2023/05/23 11:30:47;;;;;;;12.40;3.47;;;;;;;16.73;100.00;102094.22;5313672;27;20111;-66
2023/05/23 11:33:19;;;;;;;12.43;2.85;;;;;;;16.74;100.00;102103.13;5308662;28;20032;-66